sensor_id;sensor_type;location;lat;lon;timestamp;temperature;humidity
12700;DHT22;6414;49.570;6.060;2023-03-04T00:01:54;-1.20;99.90
12700;DHT22;6414;49.570;6.060;2023-03-04T00:04:39;-1.20;99.90
12700;DHT22;6414;49.570;6.060;2023-03-04T00:07:25;-1.10;99.90
12700;DHT22;6414;49.570;6.060;2023-03-04T00:10:10;-1.10;99.90
12700;DHT22;6414;49.570;6.060;2023-03-04T00:12:56;-1.20;99.90
12700;DHT22;6414;49.570;6.060;2023-03-04T00:15:41;-1.30;99.90
12700;DHT22;6414;49.570;6.060;2023-03-04T00:18:27;-1.50;99.90
12700;DHT22;6414;49.570;6.060;2023-03-04T00:21:12;-1.50;99.90
12700;DHT22;6414;49.570;6.060;2023-03-04T00:23:57;-1.60;99.90
12700;DHT22;6414;49.570;6.060;2023-03-04T00:26:43;-1.70;99.90
12700;DHT22;6414;49.570;6.060;2023-03-04T00:29:28;-1.70;99.90
12700;DHT22;6414;49.570;6.060;2023-03-04T00:32:14;-1.70;99.90
12700;DHT22;6414;49.570;6.060;2023-03-04T00:35:00;-1.90;99.90
12700;DHT22;6414;49.570;6.060;2023-03-04T00:37:45;-1.90;99.90
12700;DHT22;6414;49.570;6.060;2023-03-04T00:40:31;-2.20;99.90
12700;DHT22;6414;49.570;6.060;2023-03-04T00:43:16;-2.30;99.90
12700;DHT22;6414;49.570;6.060;2023-03-04T00:46:02;-2.30;99.90
12700;DHT22;6414;49.570;6.060;2023-03-04T00:48:47;-2.20;99.90
12700;DHT22;6414;49.570;6.060;2023-03-04T00:51:33;-2.00;99.90
12700;DHT22;6414;49.570;6.060;2023-03-04T00:54:18;-1.90;99.90
12700;DHT22;6414;49.570;6.060;2023-03-04T00:57:03;-1.90;99.90
12700;DHT22;6414;49.570;6.060;2023-03-04T00:59:50;-2.20;99.90
12700;DHT22;6414;49.570;6.060;2023-03-04T01:02:35;-2.20;99.90
12700;DHT22;6414;49.570;6.060;2023-03-04T01:05:22;-2.30;99.90
12700;DHT22;6414;49.570;6.060;2023-03-04T01:08:07;-2.30;99.90
12700;DHT22;6414;49.570;6.060;2023-03-04T01:10:53;-2.20;99.90
12700;DHT22;6414;49.570;6.060;2023-03-04T01:13:39;-2.20;99.90
12700;DHT22;6414;49.570;6.060;2023-03-04T01:16:24;-2.10;99.90
12700;DHT22;6414;49.570;6.060;2023-03-04T01:19:10;-2.10;99.90
12700;DHT22;6414;49.570;6.060;2023-03-04T01:21:56;-1.90;99.90
12700;DHT22;6414;49.570;6.060;2023-03-04T01:24:41;-1.90;99.90
12700;DHT22;6414;49.570;6.060;2023-03-04T01:27:26;-1.90;99.90
12700;DHT22;6414;49.570;6.060;2023-03-04T01:30:12;-1.80;99.90
12700;DHT22;6414;49.570;6.060;2023-03-04T01:32:57;-1.60;99.90
12700;DHT22;6414;49.570;6.060;2023-03-04T01:35:43;-1.60;99.90
12700;DHT22;6414;49.570;6.060;2023-03-04T01:38:28;-1.70;99.90
12700;DHT22;6414;49.570;6.060;2023-03-04T01:41:14;-1.60;99.90
12700;DHT22;6414;49.570;6.060;2023-03-04T01:44:00;-1.50;99.90
12700;DHT22;6414;49.570;6.060;2023-03-04T01:46:47;-1.60;99.90
12700;DHT22;6414;49.570;6.060;2023-03-04T01:49:32;-1.60;99.90
12700;DHT22;6414;49.570;6.060;2023-03-04T01:52:17;-1.80;99.90
12700;DHT22;6414;49.570;6.060;2023-03-04T01:55:05;-2.00;99.90
12700;DHT22;6414;49.570;6.060;2023-03-04T01:57:49;-2.10;99.90
12700;DHT22;6414;49.570;6.060;2023-03-04T02:00:33;-2.30;99.90
12700;DHT22;6414;49.570;6.060;2023-03-04T02:03:19;-2.30;99.90
12700;DHT22;6414;49.570;6.060;2023-03-04T02:06:04;-2.30;99.90
12700;DHT22;6414;49.570;6.060;2023-03-04T02:08:50;-2.40;99.90
12700;DHT22;6414;49.570;6.060;2023-03-04T02:11:35;-2.60;99.90
12700;DHT22;6414;49.570;6.060;2023-03-04T02:14:21;-2.70;99.90
12700;DHT22;6414;49.570;6.060;2023-03-04T02:17:10;-2.80;99.90
12700;DHT22;6414;49.570;6.060;2023-03-04T02:20:03;-2.70;99.90
12700;DHT22;6414;49.570;6.060;2023-03-04T02:25:51;-3.00;99.90
12700;DHT22;6414;49.570;6.060;2023-03-04T02:28:34;-3.10;99.90
12700;DHT22;6414;49.570;6.060;2023-03-04T02:31:30;-3.10;99.90
12700;DHT22;6414;49.570;6.060;2023-03-04T02:34:15;-3.50;99.90
12700;DHT22;6414;49.570;6.060;2023-03-04T02:37:00;-3.60;99.90
12700;DHT22;6414;49.570;6.060;2023-03-04T02:39:46;-3.50;99.90
12700;DHT22;6414;49.570;6.060;2023-03-04T02:42:31;-3.50;99.90
12700;DHT22;6414;49.570;6.060;2023-03-04T02:45:43;-3.20;99.90
12700;DHT22;6414;49.570;6.060;2023-03-04T02:48:27;-3.20;99.90
12700;DHT22;6414;49.570;6.060;2023-03-04T02:51:25;-3.10;99.90
12700;DHT22;6414;49.570;6.060;2023-03-04T02:54:16;-3.20;99.90
12700;DHT22;6414;49.570;6.060;2023-03-04T02:57:00;-3.10;99.90
12700;DHT22;6414;49.570;6.060;2023-03-04T02:59:45;-3.20;99.90
12700;DHT22;6414;49.570;6.060;2023-03-04T03:02:32;-3.10;99.90
12700;DHT22;6414;49.570;6.060;2023-03-04T03:05:17;-3.10;99.90
12700;DHT22;6414;49.570;6.060;2023-03-04T03:08:04;-3.30;99.90
12700;DHT22;6414;49.570;6.060;2023-03-04T03:10:49;-3.30;99.90
12700;DHT22;6414;49.570;6.060;2023-03-04T03:13:34;-3.40;99.90
12700;DHT22;6414;49.570;6.060;2023-03-04T03:16:20;-3.40;99.90
12700;DHT22;6414;49.570;6.060;2023-03-04T03:19:06;-3.40;99.90
12700;DHT22;6414;49.570;6.060;2023-03-04T03:21:52;-3.40;99.90
12700;DHT22;6414;49.570;6.060;2023-03-04T03:24:37;-3.40;99.90
12700;DHT22;6414;49.570;6.060;2023-03-04T03:27:23;-3.20;99.90
12700;DHT22;6414;49.570;6.060;2023-03-04T03:30:10;-3.30;99.90
12700;DHT22;6414;49.570;6.060;2023-03-04T03:32:54;-3.40;99.90
12700;DHT22;6414;49.570;6.060;2023-03-04T03:35:40;-3.40;99.90
12700;DHT22;6414;49.570;6.060;2023-03-04T03:38:25;-3.40;99.90
12700;DHT22;6414;49.570;6.060;2023-03-04T03:41:10;-3.30;99.90
12700;DHT22;6414;49.570;6.060;2023-03-04T03:43:56;-3.30;99.90
12700;DHT22;6414;49.570;6.060;2023-03-04T03:46:41;-3.10;99.90
12700;DHT22;6414;49.570;6.060;2023-03-04T03:49:27;-3.20;99.90
12700;DHT22;6414;49.570;6.060;2023-03-04T03:52:12;-3.50;99.90
12700;DHT22;6414;49.570;6.060;2023-03-04T03:54:57;-3.30;99.90
12700;DHT22;6414;49.570;6.060;2023-03-04T03:57:42;-3.10;99.90
12700;DHT22;6414;49.570;6.060;2023-03-04T04:00:28;-2.90;99.90
12700;DHT22;6414;49.570;6.060;2023-03-04T04:03:14;-2.90;99.90
12700;DHT22;6414;49.570;6.060;2023-03-04T04:05:59;-2.60;99.90
12700;DHT22;6414;49.570;6.060;2023-03-04T04:08:45;-2.50;99.90
12700;DHT22;6414;49.570;6.060;2023-03-04T04:11:31;-2.40;99.90
12700;DHT22;6414;49.570;6.060;2023-03-04T04:14:17;-2.50;99.90
12700;DHT22;6414;49.570;6.060;2023-03-04T04:17:02;-2.40;99.90
12700;DHT22;6414;49.570;6.060;2023-03-04T04:19:48;-2.40;99.90
12700;DHT22;6414;49.570;6.060;2023-03-04T04:22:34;-2.40;99.90
12700;DHT22;6414;49.570;6.060;2023-03-04T04:25:19;-2.20;99.90
12700;DHT22;6414;49.570;6.060;2023-03-04T04:28:05;-2.10;99.90
12700;DHT22;6414;49.570;6.060;2023-03-04T04:30:51;-2.00;99.90
12700;DHT22;6414;49.570;6.060;2023-03-04T04:33:37;-2.10;99.90
12700;DHT22;6414;49.570;6.060;2023-03-04T04:36:23;-2.10;99.90
12700;DHT22;6414;49.570;6.060;2023-03-04T04:39:09;-1.90;99.90
12700;DHT22;6414;49.570;6.060;2023-03-04T04:41:55;-2.00;99.90
12700;DHT22;6414;49.570;6.060;2023-03-04T04:44:41;-2.00;99.90
12700;DHT22;6414;49.570;6.060;2023-03-04T04:47:27;-2.00;99.90
12700;DHT22;6414;49.570;6.060;2023-03-04T04:50:12;-1.80;99.90
12700;DHT22;6414;49.570;6.060;2023-03-04T04:52:58;-1.90;99.90
12700;DHT22;6414;49.570;6.060;2023-03-04T04:55:44;-2.00;99.90
12700;DHT22;6414;49.570;6.060;2023-03-04T04:58:29;-1.70;99.90
12700;DHT22;6414;49.570;6.060;2023-03-04T05:01:16;-1.60;99.90
12700;DHT22;6414;49.570;6.060;2023-03-04T05:04:01;-1.60;99.90
12700;DHT22;6414;49.570;6.060;2023-03-04T05:06:47;-1.60;99.90
12700;DHT22;6414;49.570;6.060;2023-03-04T05:09:33;-1.30;99.90
12700;DHT22;6414;49.570;6.060;2023-03-04T05:12:19;-1.50;99.90
12700;DHT22;6414;49.570;6.060;2023-03-04T05:15:04;-1.50;99.90
12700;DHT22;6414;49.570;6.060;2023-03-04T05:17:50;-1.50;99.90
12700;DHT22;6414;49.570;6.060;2023-03-04T05:20:36;-1.40;99.90
12700;DHT22;6414;49.570;6.060;2023-03-04T05:23:21;-1.30;99.90
12700;DHT22;6414;49.570;6.060;2023-03-04T05:26:07;-1.30;99.90
12700;DHT22;6414;49.570;6.060;2023-03-04T05:28:52;-1.10;99.90
12700;DHT22;6414;49.570;6.060;2023-03-04T05:31:38;-1.30;99.90
12700;DHT22;6414;49.570;6.060;2023-03-04T05:34:24;-1.10;99.90
12700;DHT22;6414;49.570;6.060;2023-03-04T05:37:09;-1.30;99.90
12700;DHT22;6414;49.570;6.060;2023-03-04T05:39:55;-1.40;99.90
12700;DHT22;6414;49.570;6.060;2023-03-04T05:42:40;-1.30;99.90
12700;DHT22;6414;49.570;6.060;2023-03-04T05:45:26;-1.20;99.90
12700;DHT22;6414;49.570;6.060;2023-03-04T05:48:11;-1.10;99.90
12700;DHT22;6414;49.570;6.060;2023-03-04T05:50:58;-1.10;99.90
12700;DHT22;6414;49.570;6.060;2023-03-04T05:53:43;-1.20;99.90
12700;DHT22;6414;49.570;6.060;2023-03-04T05:56:28;-1.20;99.90
12700;DHT22;6414;49.570;6.060;2023-03-04T05:59:14;-1.10;99.90
12700;DHT22;6414;49.570;6.060;2023-03-04T06:01:59;-1.00;99.90
12700;DHT22;6414;49.570;6.060;2023-03-04T06:04:45;-1.10;99.90
12700;DHT22;6414;49.570;6.060;2023-03-04T06:07:31;-0.90;99.90
12700;DHT22;6414;49.570;6.060;2023-03-04T06:10:16;-0.90;99.90
12700;DHT22;6414;49.570;6.060;2023-03-04T06:13:01;-0.90;99.90
12700;DHT22;6414;49.570;6.060;2023-03-04T06:15:48;-0.90;99.90
12700;DHT22;6414;49.570;6.060;2023-03-04T06:18:33;-0.90;99.90
12700;DHT22;6414;49.570;6.060;2023-03-04T06:21:18;-0.90;99.90
12700;DHT22;6414;49.570;6.060;2023-03-04T06:24:04;-0.80;99.90
12700;DHT22;6414;49.570;6.060;2023-03-04T06:26:49;-0.80;99.90
12700;DHT22;6414;49.570;6.060;2023-03-04T06:29:35;-0.90;99.90
12700;DHT22;6414;49.570;6.060;2023-03-04T06:32:21;-0.70;99.90
12700;DHT22;6414;49.570;6.060;2023-03-04T06:35:06;-0.80;99.90
12700;DHT22;6414;49.570;6.060;2023-03-04T06:37:52;-0.80;99.90
12700;DHT22;6414;49.570;6.060;2023-03-04T06:40:37;-0.80;99.90
12700;DHT22;6414;49.570;6.060;2023-03-04T06:43:23;-0.80;99.90
12700;DHT22;6414;49.570;6.060;2023-03-04T06:46:08;-0.70;99.90
12700;DHT22;6414;49.570;6.060;2023-03-04T06:48:53;-0.70;99.90
12700;DHT22;6414;49.570;6.060;2023-03-04T06:51:39;-0.60;99.90
12700;DHT22;6414;49.570;6.060;2023-03-04T06:54:25;-0.50;99.90
12700;DHT22;6414;49.570;6.060;2023-03-04T06:57:11;-0.50;99.90
12700;DHT22;6414;49.570;6.060;2023-03-04T06:59:57;-0.40;99.90
12700;DHT22;6414;49.570;6.060;2023-03-04T07:02:43;-0.20;99.90
12700;DHT22;6414;49.570;6.060;2023-03-04T07:05:29;-0.20;99.90
12700;DHT22;6414;49.570;6.060;2023-03-04T07:08:14;-0.10;99.90
12700;DHT22;6414;49.570;6.060;2023-03-04T07:11:00;-0.20;99.90
12700;DHT22;6414;49.570;6.060;2023-03-04T07:13:46;-0.20;99.90
12700;DHT22;6414;49.570;6.060;2023-03-04T07:16:32;-0.10;99.90
12700;DHT22;6414;49.570;6.060;2023-03-04T07:19:17;-0.10;99.90
12700;DHT22;6414;49.570;6.060;2023-03-04T07:22:03;-0.10;99.90
12700;DHT22;6414;49.570;6.060;2023-03-04T07:24:49;-0.10;99.90
12700;DHT22;6414;49.570;6.060;2023-03-04T07:27:34;-0.10;99.90
12700;DHT22;6414;49.570;6.060;2023-03-04T07:30:21;0.10;99.90
12700;DHT22;6414;49.570;6.060;2023-03-04T07:33:08;0.20;99.90
12700;DHT22;6414;49.570;6.060;2023-03-04T07:35:59;0.20;99.90
12700;DHT22;6414;49.570;6.060;2023-03-04T07:38:45;0.30;99.90
12700;DHT22;6414;49.570;6.060;2023-03-04T07:41:30;0.30;99.90
12700;DHT22;6414;49.570;6.060;2023-03-04T07:44:15;0.40;99.90
12700;DHT22;6414;49.570;6.060;2023-03-04T07:47:01;0.40;99.90
12700;DHT22;6414;49.570;6.060;2023-03-04T07:49:47;0.40;99.90
12700;DHT22;6414;49.570;6.060;2023-03-04T07:52:32;0.50;99.90
12700;DHT22;6414;49.570;6.060;2023-03-04T07:55:18;0.60;99.90
12700;DHT22;6414;49.570;6.060;2023-03-04T07:58:04;0.70;99.90
12700;DHT22;6414;49.570;6.060;2023-03-04T08:00:51;0.80;99.90
12700;DHT22;6414;49.570;6.060;2023-03-04T08:03:37;0.80;99.90
12700;DHT22;6414;49.570;6.060;2023-03-04T08:06:22;0.90;99.90
12700;DHT22;6414;49.570;6.060;2023-03-04T08:09:09;0.90;99.90
12700;DHT22;6414;49.570;6.060;2023-03-04T08:11:54;1.00;99.90
12700;DHT22;6414;49.570;6.060;2023-03-04T08:14:39;1.00;99.90
12700;DHT22;6414;49.570;6.060;2023-03-04T08:17:25;1.10;99.90
12700;DHT22;6414;49.570;6.060;2023-03-04T08:20:11;1.00;99.90
12700;DHT22;6414;49.570;6.060;2023-03-04T08:22:56;1.20;99.90
12700;DHT22;6414;49.570;6.060;2023-03-04T08:25:42;1.10;99.90
12700;DHT22;6414;49.570;6.060;2023-03-04T08:28:27;1.20;99.90
12700;DHT22;6414;49.570;6.060;2023-03-04T08:31:13;1.20;99.90
12700;DHT22;6414;49.570;6.060;2023-03-04T08:33:58;1.10;99.90
12700;DHT22;6414;49.570;6.060;2023-03-04T08:36:43;1.30;99.90
12700;DHT22;6414;49.570;6.060;2023-03-04T08:39:29;1.40;99.90
12700;DHT22;6414;49.570;6.060;2023-03-04T08:42:15;1.40;99.90
12700;DHT22;6414;49.570;6.060;2023-03-04T08:45:00;1.40;99.90
12700;DHT22;6414;49.570;6.060;2023-03-04T08:47:46;1.50;99.90
12700;DHT22;6414;49.570;6.060;2023-03-04T08:50:32;1.50;99.90
12700;DHT22;6414;49.570;6.060;2023-03-04T08:53:18;1.50;99.90
12700;DHT22;6414;49.570;6.060;2023-03-04T08:56:04;1.70;99.90
12700;DHT22;6414;49.570;6.060;2023-03-04T08:58:49;1.60;99.90
12700;DHT22;6414;49.570;6.060;2023-03-04T09:01:35;1.70;99.90
12700;DHT22;6414;49.570;6.060;2023-03-04T09:04:21;1.60;99.90
12700;DHT22;6414;49.570;6.060;2023-03-04T09:07:06;1.80;99.90
12700;DHT22;6414;49.570;6.060;2023-03-04T09:09:51;1.90;99.90
12700;DHT22;6414;49.570;6.060;2023-03-04T09:12:37;2.00;99.90
12700;DHT22;6414;49.570;6.060;2023-03-04T09:15:22;2.10;99.90
12700;DHT22;6414;49.570;6.060;2023-03-04T09:18:08;2.00;99.90
12700;DHT22;6414;49.570;6.060;2023-03-04T09:20:53;2.00;99.90
12700;DHT22;6414;49.570;6.060;2023-03-04T09:23:40;2.10;99.90
12700;DHT22;6414;49.570;6.060;2023-03-04T09:26:26;2.10;99.90
12700;DHT22;6414;49.570;6.060;2023-03-04T09:29:12;2.10;99.90
12700;DHT22;6414;49.570;6.060;2023-03-04T09:31:57;2.10;99.90
12700;DHT22;6414;49.570;6.060;2023-03-04T09:34:42;2.10;99.90
12700;DHT22;6414;49.570;6.060;2023-03-04T09:37:28;2.00;99.90
12700;DHT22;6414;49.570;6.060;2023-03-04T09:40:25;2.00;99.90
12700;DHT22;6414;49.570;6.060;2023-03-04T09:43:18;2.30;99.90
12700;DHT22;6414;49.570;6.060;2023-03-04T09:45:54;2.30;99.90
12700;DHT22;6414;49.570;6.060;2023-03-04T09:48:39;2.20;99.90
12700;DHT22;6414;49.570;6.060;2023-03-04T09:54:30;2.30;99.90
12700;DHT22;6414;49.570;6.060;2023-03-04T09:57:20;2.30;99.90
12700;DHT22;6414;49.570;6.060;2023-03-04T10:03:03;2.40;99.90
12700;DHT22;6414;49.570;6.060;2023-03-04T10:09:10;2.50;99.90
12700;DHT22;6414;49.570;6.060;2023-03-04T10:12:10;2.60;99.90
12700;DHT22;6414;49.570;6.060;2023-03-04T10:15:39;2.60;99.90
12700;DHT22;6414;49.570;6.060;2023-03-04T10:17:42;2.70;99.90
12700;DHT22;6414;49.570;6.060;2023-03-04T10:20:30;2.70;99.90
12700;DHT22;6414;49.570;6.060;2023-03-04T10:23:18;2.70;99.90
12700;DHT22;6414;49.570;6.060;2023-03-04T10:26:01;2.60;99.90
12700;DHT22;6414;49.570;6.060;2023-03-04T10:28:46;2.60;99.90
12700;DHT22;6414;49.570;6.060;2023-03-04T10:31:37;2.70;99.90
12700;DHT22;6414;49.570;6.060;2023-03-04T10:34:20;2.70;99.90
12700;DHT22;6414;49.570;6.060;2023-03-04T10:37:05;2.60;99.90
12700;DHT22;6414;49.570;6.060;2023-03-04T10:39:51;2.80;99.90
12700;DHT22;6414;49.570;6.060;2023-03-04T10:42:36;2.80;99.90
12700;DHT22;6414;49.570;6.060;2023-03-04T10:45:23;2.90;99.90
12700;DHT22;6414;49.570;6.060;2023-03-04T10:48:15;3.10;99.90
12700;DHT22;6414;49.570;6.060;2023-03-04T10:51:07;2.90;99.90
12700;DHT22;6414;49.570;6.060;2023-03-04T10:53:39;2.90;99.90
12700;DHT22;6414;49.570;6.060;2023-03-04T10:56:35;3.20;99.90
12700;DHT22;6414;49.570;6.060;2023-03-04T10:59:47;3.10;99.90
12700;DHT22;6414;49.570;6.060;2023-03-04T11:02:32;3.20;99.90
12700;DHT22;6414;49.570;6.060;2023-03-04T11:05:21;3.20;99.90
12700;DHT22;6414;49.570;6.060;2023-03-04T11:08:14;3.30;99.90
12700;DHT22;6414;49.570;6.060;2023-03-04T11:10:51;3.30;99.90
12700;DHT22;6414;49.570;6.060;2023-03-04T11:13:36;3.40;99.90
12700;DHT22;6414;49.570;6.060;2023-03-04T11:16:24;3.60;99.90
12700;DHT22;6414;49.570;6.060;2023-03-04T11:19:13;3.50;99.90
12700;DHT22;6414;49.570;6.060;2023-03-04T11:21:56;3.60;99.90
12700;DHT22;6414;49.570;6.060;2023-03-04T11:24:43;3.30;99.90
12700;DHT22;6414;49.570;6.060;2023-03-04T11:27:36;3.30;99.90
12700;DHT22;6414;49.570;6.060;2023-03-04T11:30:31;3.30;99.90
12700;DHT22;6414;49.570;6.060;2023-03-04T11:39:00;3.70;99.90
12700;DHT22;6414;49.570;6.060;2023-03-04T11:42:00;3.70;99.90
12700;DHT22;6414;49.570;6.060;2023-03-04T11:44:44;3.80;99.90
12700;DHT22;6414;49.570;6.060;2023-03-04T11:47:55;3.80;99.90
12700;DHT22;6414;49.570;6.060;2023-03-04T11:50:50;3.80;99.90
12700;DHT22;6414;49.570;6.060;2023-03-04T11:54:07;3.80;99.90
12700;DHT22;6414;49.570;6.060;2023-03-04T11:56:51;3.80;99.90
12700;DHT22;6414;49.570;6.060;2023-03-04T12:00:03;4.00;99.90
12700;DHT22;6414;49.570;6.060;2023-03-04T12:03:14;3.80;99.90
12700;DHT22;6414;49.570;6.060;2023-03-04T12:09:22;3.70;94.10
12700;DHT22;6414;49.570;6.060;2023-03-04T12:12:33;3.80;99.90
12700;DHT22;6414;49.570;6.060;2023-03-04T12:21:46;4.20;80.30
12700;DHT22;6414;49.570;6.060;2023-03-04T12:27:41;4.00;91.50
12700;DHT22;6414;49.570;6.060;2023-03-04T12:30:41;3.90;99.90
12700;DHT22;6414;49.570;6.060;2023-03-04T12:36:30;3.90;99.90
12700;DHT22;6414;49.570;6.060;2023-03-04T12:39:32;4.10;99.90
12700;DHT22;6414;49.570;6.060;2023-03-04T12:42:23;4.10;99.90
12700;DHT22;6414;49.570;6.060;2023-03-04T12:45:17;4.00;99.90
12700;DHT22;6414;49.570;6.060;2023-03-04T12:51:06;4.00;99.90
12700;DHT22;6414;49.570;6.060;2023-03-04T12:56:42;3.90;99.90
12700;DHT22;6414;49.570;6.060;2023-03-04T12:59:27;3.90;99.90
12700;DHT22;6414;49.570;6.060;2023-03-04T13:05:54;4.00;99.90
12700;DHT22;6414;49.570;6.060;2023-03-04T13:11:32;3.80;99.90
12700;DHT22;6414;49.570;6.060;2023-03-04T13:23:26;4.00;99.90
12700;DHT22;6414;49.570;6.060;2023-03-04T13:26:22;4.00;99.90
12700;DHT22;6414;49.570;6.060;2023-03-04T13:29:29;4.00;99.90
12700;DHT22;6414;49.570;6.060;2023-03-04T13:32:03;4.00;99.90
12700;DHT22;6414;49.570;6.060;2023-03-04T13:34:50;3.90;99.90
12700;DHT22;6414;49.570;6.060;2023-03-04T13:37:35;4.10;99.90
12700;DHT22;6414;49.570;6.060;2023-03-04T13:43:35;4.00;99.90
12700;DHT22;6414;49.570;6.060;2023-03-04T13:49:03;4.00;99.90
12700;DHT22;6414;49.570;6.060;2023-03-04T13:51:48;4.10;99.90
12700;DHT22;6414;49.570;6.060;2023-03-04T13:54:34;4.00;99.90
12700;DHT22;6414;49.570;6.060;2023-03-04T13:57:21;4.10;99.90
12700;DHT22;6414;49.570;6.060;2023-03-04T14:00:09;4.00;99.90
12700;DHT22;6414;49.570;6.060;2023-03-04T14:02:52;4.10;99.90
12700;DHT22;6414;49.570;6.060;2023-03-04T14:05:37;4.10;99.90
12700;DHT22;6414;49.570;6.060;2023-03-04T14:08:23;4.10;99.90
12700;DHT22;6414;49.570;6.060;2023-03-04T14:11:24;4.10;99.90
12700;DHT22;6414;49.570;6.060;2023-03-04T14:14:03;4.20;99.90
12700;DHT22;6414;49.570;6.060;2023-03-04T14:16:49;4.10;99.90
12700;DHT22;6414;49.570;6.060;2023-03-04T14:19:42;4.00;99.90
12700;DHT22;6414;49.570;6.060;2023-03-04T14:22:30;4.30;99.90
12700;DHT22;6414;49.570;6.060;2023-03-04T14:25:23;4.30;99.90
12700;DHT22;6414;49.570;6.060;2023-03-04T14:28:17;4.30;99.90
12700;DHT22;6414;49.570;6.060;2023-03-04T14:31:01;4.10;99.90
12700;DHT22;6414;49.570;6.060;2023-03-04T14:33:48;4.10;99.90
12700;DHT22;6414;49.570;6.060;2023-03-04T14:36:33;4.20;99.90
12700;DHT22;6414;49.570;6.060;2023-03-04T14:39:18;4.10;99.90
12700;DHT22;6414;49.570;6.060;2023-03-04T14:42:06;4.20;99.90
12700;DHT22;6414;49.570;6.060;2023-03-04T14:44:50;4.20;99.90
12700;DHT22;6414;49.570;6.060;2023-03-04T14:47:40;4.20;99.90
12700;DHT22;6414;49.570;6.060;2023-03-04T14:50:22;4.20;95.90
12700;DHT22;6414;49.570;6.060;2023-03-04T14:55:54;4.10;93.20
12700;DHT22;6414;49.570;6.060;2023-03-04T14:58:50;4.10;99.90
12700;DHT22;6414;49.570;6.060;2023-03-04T15:01:31;4.10;99.90
12700;DHT22;6414;49.570;6.060;2023-03-04T15:04:13;4.10;99.90
12700;DHT22;6414;49.570;6.060;2023-03-04T15:06:58;4.20;99.90
12700;DHT22;6414;49.570;6.060;2023-03-04T15:09:48;4.20;99.90
12700;DHT22;6414;49.570;6.060;2023-03-04T15:12:30;4.20;99.90
12700;DHT22;6414;49.570;6.060;2023-03-04T15:15:37;4.20;99.90
12700;DHT22;6414;49.570;6.060;2023-03-04T15:18:26;4.10;99.90
12700;DHT22;6414;49.570;6.060;2023-03-04T15:24:08;4.30;99.90
12700;DHT22;6414;49.570;6.060;2023-03-04T15:26:52;4.30;99.90
12700;DHT22;6414;49.570;6.060;2023-03-04T15:29:38;4.20;99.90
12700;DHT22;6414;49.570;6.060;2023-03-04T15:32:24;4.20;99.90
12700;DHT22;6414;49.570;6.060;2023-03-04T15:35:12;4.20;99.90
12700;DHT22;6414;49.570;6.060;2023-03-04T15:37:57;4.30;99.90
12700;DHT22;6414;49.570;6.060;2023-03-04T15:40:43;4.20;99.90
12700;DHT22;6414;49.570;6.060;2023-03-04T15:43:29;4.20;90.80
12700;DHT22;6414;49.570;6.060;2023-03-04T15:46:14;4.10;83.10
12700;DHT22;6414;49.570;6.060;2023-03-04T15:49:00;4.20;90.00
12700;DHT22;6414;49.570;6.060;2023-03-04T15:51:46;4.30;99.90
12700;DHT22;6414;49.570;6.060;2023-03-04T15:54:31;4.30;99.90
12700;DHT22;6414;49.570;6.060;2023-03-04T15:57:20;4.20;99.90
12700;DHT22;6414;49.570;6.060;2023-03-04T16:00:11;4.30;99.90
12700;DHT22;6414;49.570;6.060;2023-03-04T16:02:57;4.10;99.90
12700;DHT22;6414;49.570;6.060;2023-03-04T16:05:43;4.10;99.90
12700;DHT22;6414;49.570;6.060;2023-03-04T16:08:29;4.20;99.90
12700;DHT22;6414;49.570;6.060;2023-03-04T16:11:22;4.20;99.90
12700;DHT22;6414;49.570;6.060;2023-03-04T16:14:04;4.10;99.90
12700;DHT22;6414;49.570;6.060;2023-03-04T16:16:49;4.10;99.90
12700;DHT22;6414;49.570;6.060;2023-03-04T16:19:35;4.10;99.90
12700;DHT22;6414;49.570;6.060;2023-03-04T16:22:22;4.00;99.90
12700;DHT22;6414;49.570;6.060;2023-03-04T16:25:13;4.00;99.90
12700;DHT22;6414;49.570;6.060;2023-03-04T16:27:58;3.90;99.90
12700;DHT22;6414;49.570;6.060;2023-03-04T16:30:43;3.90;99.90
12700;DHT22;6414;49.570;6.060;2023-03-04T16:33:30;3.90;99.90
12700;DHT22;6414;49.570;6.060;2023-03-04T16:36:22;3.90;99.90
12700;DHT22;6414;49.570;6.060;2023-03-04T16:39:09;3.90;99.90
12700;DHT22;6414;49.570;6.060;2023-03-04T16:41:53;3.90;99.90
12700;DHT22;6414;49.570;6.060;2023-03-04T16:44:42;3.90;99.90
12700;DHT22;6414;49.570;6.060;2023-03-04T16:47:29;3.90;99.90
12700;DHT22;6414;49.570;6.060;2023-03-04T16:50:16;3.90;99.90
12700;DHT22;6414;49.570;6.060;2023-03-04T16:53:00;3.90;99.90
12700;DHT22;6414;49.570;6.060;2023-03-04T16:55:45;3.90;99.90
12700;DHT22;6414;49.570;6.060;2023-03-04T16:58:30;3.80;99.90
12700;DHT22;6414;49.570;6.060;2023-03-04T17:01:16;3.80;99.90
12700;DHT22;6414;49.570;6.060;2023-03-04T17:04:02;3.90;99.90
12700;DHT22;6414;49.570;6.060;2023-03-04T17:06:47;3.80;99.90
12700;DHT22;6414;49.570;6.060;2023-03-04T17:09:34;4.00;99.90
12700;DHT22;6414;49.570;6.060;2023-03-04T17:12:19;4.00;99.90
12700;DHT22;6414;49.570;6.060;2023-03-04T17:15:05;4.00;99.90
12700;DHT22;6414;49.570;6.060;2023-03-04T17:17:50;3.90;99.90
12700;DHT22;6414;49.570;6.060;2023-03-04T17:20:36;3.90;99.90
12700;DHT22;6414;49.570;6.060;2023-03-04T17:23:21;3.90;99.90
12700;DHT22;6414;49.570;6.060;2023-03-04T17:26:07;3.90;99.90
12700;DHT22;6414;49.570;6.060;2023-03-04T17:28:52;3.90;99.90
12700;DHT22;6414;49.570;6.060;2023-03-04T17:31:37;3.80;99.90
12700;DHT22;6414;49.570;6.060;2023-03-04T17:34:23;3.80;99.90
12700;DHT22;6414;49.570;6.060;2023-03-04T17:37:09;3.80;99.90
12700;DHT22;6414;49.570;6.060;2023-03-04T17:39:54;3.80;99.90
12700;DHT22;6414;49.570;6.060;2023-03-04T17:42:40;3.90;99.90
12700;DHT22;6414;49.570;6.060;2023-03-04T17:45:26;3.80;99.90
12700;DHT22;6414;49.570;6.060;2023-03-04T17:48:11;3.80;99.90
12700;DHT22;6414;49.570;6.060;2023-03-04T17:50:58;3.80;99.90
12700;DHT22;6414;49.570;6.060;2023-03-04T17:53:43;3.80;99.90
12700;DHT22;6414;49.570;6.060;2023-03-04T17:56:28;3.80;99.90
12700;DHT22;6414;49.570;6.060;2023-03-04T17:59:14;3.80;99.90
12700;DHT22;6414;49.570;6.060;2023-03-04T18:02:00;3.80;99.90
12700;DHT22;6414;49.570;6.060;2023-03-04T18:04:46;3.80;99.90
12700;DHT22;6414;49.570;6.060;2023-03-04T18:07:31;3.80;99.90
12700;DHT22;6414;49.570;6.060;2023-03-04T18:10:17;3.70;99.90
12700;DHT22;6414;49.570;6.060;2023-03-04T18:13:02;3.70;99.90
12700;DHT22;6414;49.570;6.060;2023-03-04T18:15:48;3.70;99.90
12700;DHT22;6414;49.570;6.060;2023-03-04T18:18:37;3.60;99.90
12700;DHT22;6414;49.570;6.060;2023-03-04T18:21:23;3.70;99.90
12700;DHT22;6414;49.570;6.060;2023-03-04T18:24:08;3.70;99.90
12700;DHT22;6414;49.570;6.060;2023-03-04T18:26:54;3.70;99.90
12700;DHT22;6414;49.570;6.060;2023-03-04T18:29:39;3.60;99.90
12700;DHT22;6414;49.570;6.060;2023-03-04T18:32:25;3.70;99.90
12700;DHT22;6414;49.570;6.060;2023-03-04T18:35:12;3.70;99.90
12700;DHT22;6414;49.570;6.060;2023-03-04T18:37:57;3.80;99.90
12700;DHT22;6414;49.570;6.060;2023-03-04T18:40:42;3.80;99.90
12700;DHT22;6414;49.570;6.060;2023-03-04T18:43:28;3.80;99.90
12700;DHT22;6414;49.570;6.060;2023-03-04T18:46:21;3.90;99.90
12700;DHT22;6414;49.570;6.060;2023-03-04T18:49:03;4.00;99.90
12700;DHT22;6414;49.570;6.060;2023-03-04T18:51:48;4.00;99.90
12700;DHT22;6414;49.570;6.060;2023-03-04T18:54:33;3.90;99.90
12700;DHT22;6414;49.570;6.060;2023-03-04T18:57:19;3.80;99.90
12700;DHT22;6414;49.570;6.060;2023-03-04T19:00:05;3.80;99.90
12700;DHT22;6414;49.570;6.060;2023-03-04T19:02:58;4.00;99.90
12700;DHT22;6414;49.570;6.060;2023-03-04T19:05:39;4.00;99.90
12700;DHT22;6414;49.570;6.060;2023-03-04T19:08:25;4.10;99.90